createdAt,value
2022-12-15T07:05:22.379Z,24.57
2022-12-15T07:10:24.522Z,23.70
2022-12-15T07:15:26.507Z,23.50
2022-12-15T07:20:29.151Z,23.33
2022-12-15T07:25:31.178Z,24.73
2022-12-15T07:30:38.465Z,24.17
2022-12-15T07:35:41.206Z,24.13
2022-12-15T07:40:43.204Z,25.12
2022-12-15T07:45:51.161Z,25.02
2022-12-15T07:51:02.879Z,25.57
2022-12-15T07:56:10.371Z,25.08
2022-12-15T08:01:13.948Z,25.98
2022-12-15T08:06:16.250Z,24.80
2022-12-15T08:11:20.516Z,25.75
2022-12-15T08:16:22.657Z,28.38
2022-12-15T08:21:24.699Z,27.10
2022-12-15T08:26:30.723Z,26.97
2022-12-15T08:31:33.909Z,26.25
2022-12-15T08:36:36.012Z,28.75
2022-12-15T08:41:38.101Z,27.07
2022-12-15T08:46:40.123Z,25.98
2022-12-15T08:51:42.176Z,26.17
2022-12-15T08:56:44.219Z,25.97
2022-12-15T09:01:46.578Z,24.08
2022-12-15T09:06:50.793Z,24.63
2022-12-15T09:11:52.995Z,24.23
2022-12-15T09:16:55.141Z,23.17
2022-12-15T09:21:57.257Z,23.67
2022-12-15T09:26:59.310Z,24.33
2022-12-15T09:32:01.904Z,22.27
2022-12-15T09:37:04.043Z,27.08
2022-12-15T09:42:06.066Z,22.98
2022-12-15T09:47:20.479Z,25.07
2022-12-15T09:52:29.228Z,23.27
2022-12-15T09:57:44.684Z,24.67
2022-12-15T10:03:28.296Z,23.17
2022-12-15T10:08:40.813Z,24.27
2022-12-15T10:14:11.902Z,25.35
2022-12-15T10:19:24.083Z,25.88
2022-12-15T10:25:09.153Z,23.50
2022-12-15T10:30:02.498Z,24.45
2022-12-15T10:35:29.065Z,25.30
2022-12-15T10:40:50.516Z,24.70
2022-12-15T10:46:14.927Z,24.60
2022-12-15T10:51:22.050Z,23.87
2022-12-15T10:56:33.455Z,23.13
2022-12-15T11:01:36.246Z,23.83
2022-12-15T11:06:42.559Z,24.37
2022-12-15T11:12:11.971Z,23.33
2022-12-15T11:17:22.928Z,24.40
2022-12-15T11:22:53.016Z,24.08
2022-12-15T11:27:58.022Z,23.05
2022-12-15T11:33:01.418Z,22.47
2022-12-15T11:38:31.652Z,22.67
2022-12-15T11:44:15.854Z,23.95
2022-12-15T11:49:26.602Z,22.20
2022-12-15T11:54:37.474Z,23.87
2022-12-15T11:59:49.347Z,23.60
2022-12-15T12:05:18.674Z,25.62
2022-12-15T12:10:42.713Z,23.97
2022-12-15T12:16:20.006Z,24.17
2022-12-15T12:21:29.243Z,24.75
2022-12-15T12:26:44.169Z,24.33
2022-12-15T12:31:51.928Z,24.55
2022-12-15T12:36:58.831Z,24.10
2022-12-15T12:42:21.292Z,25.97
2022-12-15T12:47:28.132Z,27.77
2022-12-15T12:52:37.002Z,28.23
2022-12-15T12:57:38.950Z,26.20
2022-12-15T13:02:47.787Z,27.30
2022-12-15T13:08:10.855Z,28.08
2022-12-15T13:13:37.532Z,26.50
2022-12-15T13:19:06.886Z,28.37
2022-12-15T13:24:27.356Z,27.98
2022-12-15T13:29:29.531Z,26.60
2022-12-15T13:34:41.064Z,25.93
2022-12-15T13:39:55.787Z,26.33
2022-12-15T13:45:11.822Z,25.65
2022-12-15T13:50:29.682Z,24.08
2022-12-15T13:55:37.394Z,25.73
2022-12-15T14:00:47.568Z,25.20
2022-12-15T14:05:53.850Z,25.10
2022-12-15T14:10:58.643Z,25.03
2022-12-15T14:16:03.580Z,25.52
2022-12-15T14:21:08.170Z,25.60
2022-12-15T14:26:11.967Z,24.90
2022-12-15T14:31:17.016Z,26.07
2022-12-15T14:36:20.703Z,26.08
2022-12-15T14:41:45.373Z,26.67
2022-12-15T14:46:57.748Z,28.00
2022-12-15T14:52:03.083Z,27.48
2022-12-15T14:57:11.131Z,27.67
2022-12-15T15:02:25.862Z,25.97
2022-12-15T15:07:29.400Z,27.73
2022-12-15T15:12:48.877Z,26.30
2022-12-15T15:17:56.724Z,26.97
2022-12-15T15:23:03.907Z,25.47
2022-12-15T15:28:17.407Z,25.35
2022-12-15T15:33:20.034Z,27.02
2022-12-15T15:38:29.272Z,27.67
2022-12-15T15:43:31.465Z,28.42
2022-12-15T15:48:38.611Z,26.25
2022-12-15T15:53:41.107Z,27.50
2022-12-15T15:58:46.741Z,26.85
2022-12-15T16:03:48.877Z,27.23
2022-12-15T16:08:53.951Z,27.20
2022-12-15T16:13:56.770Z,27.37
2022-12-15T16:18:58.908Z,26.83
2022-12-15T16:24:08.555Z,25.33
2022-12-15T16:29:20.100Z,25.43
2022-12-15T16:34:24.700Z,20.95
2022-12-15T16:39:35.039Z,21.02
2022-12-15T16:44:37.122Z,22.07
2022-12-15T16:49:40.443Z,23.83
2022-12-15T16:54:46.383Z,22.67
2022-12-15T16:59:49.850Z,19.03
2022-12-15T17:04:52.691Z,18.90
2022-12-15T17:09:55.100Z,20.83
2022-12-15T17:14:58.418Z,20.67
2022-12-15T17:25:46.116Z,20.50
2022-12-15T17:30:48.774Z,20.52
2022-12-15T17:35:55.053Z,20.40
2022-12-15T17:40:57.378Z,21.30
2022-12-15T17:45:59.472Z,21.00
2022-12-15T17:51:01.814Z,20.37
2022-12-15T17:56:04.816Z,20.97
2022-12-15T18:01:10.459Z,21.58
2022-12-15T18:06:15.401Z,22.15
2022-12-15T18:11:17.480Z,20.47
2022-12-15T18:16:19.554Z,20.98
2022-12-15T18:21:21.675Z,21.65
2022-12-15T18:26:23.845Z,21.40
2022-12-15T18:31:27.922Z,20.73
2022-12-15T18:36:30.089Z,20.05
2022-12-15T18:41:32.756Z,19.33
2022-12-15T18:46:34.882Z,19.97
2022-12-15T18:51:37.523Z,19.45
2022-12-15T18:56:39.575Z,18.85
2022-12-15T19:01:43.129Z,18.13
2022-12-15T19:06:45.432Z,18.75
2022-12-15T19:12:17.825Z,17.42
2022-12-15T19:17:40.645Z,17.60
2022-12-15T19:22:44.205Z,16.48
2022-12-15T19:27:46.292Z,16.20
2022-12-15T19:32:48.319Z,14.67
2022-12-15T19:37:50.789Z,14.87
2022-12-15T19:42:55.492Z,15.82
2022-12-15T19:47:58.616Z,15.23
2022-12-15T19:53:03.038Z,15.97
2022-12-15T19:58:27.744Z,17.92
2022-12-15T20:03:31.326Z,16.08
2022-12-15T20:08:36.876Z,17.00
2022-12-15T20:13:38.970Z,15.27
2022-12-15T20:18:41.062Z,15.27
2022-12-15T20:23:57.174Z,15.50
2022-12-15T20:28:59.414Z,14.17
2022-12-15T20:34:01.467Z,14.13
2022-12-15T20:39:04.453Z,14.25
2022-12-15T20:44:12.900Z,14.20
2022-12-15T20:49:21.013Z,14.48
2022-12-15T20:54:23.175Z,14.57
2022-12-15T20:59:25.353Z,12.93
2022-12-15T21:04:30.513Z,13.95
2022-12-15T21:09:33.251Z,12.63
2022-12-15T21:14:35.299Z,11.37
2022-12-15T21:19:37.299Z,11.70
2022-12-15T21:24:39.408Z,11.15
2022-12-15T21:29:44.970Z,11.60
2022-12-15T21:34:50.013Z,10.73
2022-12-15T21:39:55.328Z,11.05
2022-12-15T21:44:57.404Z,11.38
2022-12-15T21:50:01.088Z,10.53
2022-12-15T21:55:06.014Z,10.45
